Thursday, July 31, 2014, 5:36 PM EDT

KLKU, Louisa, Louisa County Airport/freeman Field

Location: Louisa, VA, United States Lat: 38.01
Local Time: 5:36 PM EDT (21:36 GMT) Lon: -77.97
Time Zone: US/Eastern Elev: 492 ft

Show me the last for .
Show Decoded

2014-07-31 17:15 METAR KLKU 312115Z AUTO 19006KT 10SM CLR 27/18 A3010 RMK AO2 =
2014-07-31 16:55 METAR KLKU 312055Z AUTO 19008KT 160V250 10SM SCT095 27/18 A3010 RMK AO2 =
2014-07-31 16:35 METAR KLKU 312035Z AUTO 19006KT 10SM SCT050 SCT060 BKN095 27/18 A3010 RMK AO2 =
2014-07-31 16:15 METAR KLKU 312015Z AUTO 16005KT 10SM SCT060 SCT065 SCT090 28/18 A3010 RMK AO2 =
2014-07-31 15:55 METAR KLKU 311955Z AUTO 17004KT 10SM CLR 29/17 A3010 RMK AO2 =
2014-07-31 15:35 METAR KLKU 311935Z AUTO 19005KT 10SM CLR 28/17 A3010 RMK AO2 =
2014-07-31 15:15 METAR KLKU 311915Z AUTO 21005KT 10SM SCT060 SCT075 28/16 A3010 RMK AO2 =
2014-07-31 14:55 METAR KLKU 311855Z AUTO 24004KT 10SM SCT060 SCT075 SCT090 28/15 A3010 RMK AO2 =
2014-07-31 14:35 METAR KLKU 311835Z AUTO 21004KT 10SM SCT060 29/16 A3010 RMK AO2 =
2014-07-31 13:55 METAR KLKU 311755Z AUTO 21007KT 10SM SCT060 29/15 A3010 RMK AO2 =
2014-07-31 13:35 METAR KLKU 311735Z AUTO 20006KT 10SM SCT050 29/16 A3011 RMK AO2 =
2014-07-31 13:15 METAR KLKU 311715Z AUTO 22005KT 10SM SCT055 28/16 A3011 RMK AO2 =
2014-07-31 12:55 METAR KLKU 311655Z AUTO 24005KT 10SM SCT047 28/16 A3011 RMK AO2 =
2014-07-31 12:35 METAR KLKU 311635Z AUTO 00000KT 10SM SCT047 28/17 A3011 RMK AO2 =
2014-07-31 12:15 METAR KLKU 311615Z AUTO 21004KT 10SM SCT043 28/17 A3011 RMK AO2 =
2014-07-31 11:55 METAR KLKU 311555Z AUTO 27003KT 10SM CLR 27/17 A3011 RMK AO2 =
2014-07-31 11:35 METAR KLKU 311535Z AUTO 27006KT 10SM CLR 27/17 A3012 RMK AO2 =
2014-07-31 11:15 METAR KLKU 311515Z AUTO 26008KT 10SM CLR 27/18 A3012 RMK AO2 =
2014-07-31 10:55 METAR KLKU 311455Z AUTO 25006KT 10SM CLR 27/18 A3012 RMK AO2 =
2014-07-31 10:35 METAR KLKU 311435Z AUTO 24003KT 10SM CLR 26/18 A3012 RMK AO2 =
2014-07-31 10:15 METAR KLKU 311415Z AUTO 24006KT 10SM CLR 25/18 A3012 RMK AO2 =
2014-07-31 09:55 METAR KLKU 311355Z AUTO 24006KT 10SM CLR 24/18 A3012 RMK AO2 =
2014-07-31 09:35 METAR KLKU 311335Z AUTO 21006KT 10SM CLR 23/18 A3012 RMK AO2 =
2014-07-31 09:15 METAR KLKU 311315Z AUTO 23004KT 10SM CLR 22/17 A3012 RMK AO2 =
2014-07-31 08:55 METAR KLKU 311255Z AUTO 21003KT 10SM CLR 22/17 A3011 RMK AO2 =
2014-07-31 08:35 METAR KLKU 311235Z AUTO 00000KT 10SM CLR 21/17 A3011 RMK AO2 =
2014-07-31 08:15 METAR KLKU 311215Z AUTO 22003KT 10SM CLR 20/17 A3011 RMK AO2 =
2014-07-31 07:55 METAR KLKU 311155Z AUTO 21003KT 10SM CLR 19/16 A3011 RMK AO2 =
2014-07-31 07:35 METAR KLKU 311135Z AUTO 00000KT 10SM CLR 18/16 A3011 RMK AO2 =
2014-07-31 07:15 METAR KLKU 311115Z AUTO 00000KT 10SM CLR 17/15 A3010 RMK AO2 =
2014-07-31 06:55 METAR KLKU 311055Z AUTO 00000KT 10SM CLR 17/15 A3010 RMK AO2 =
2014-07-31 06:35 METAR KLKU 311035Z AUTO 20003KT 10SM CLR 16/14 A3010 RMK AO2 =
2014-07-31 06:15 METAR KLKU 311015Z AUTO 00000KT 7SM CLR 16/14 A3010 RMK AO2 =
2014-07-31 05:55 METAR KLKU 310955Z AUTO 00000KT 10SM CLR 16/14 A3009 RMK AO2 =
2014-07-31 05:35 METAR KLKU 310935Z AUTO 16004KT 7SM CLR 16/14 A3009 RMK AO2 =
2014-07-31 05:15 METAR KLKU 310915Z AUTO 15003KT 10SM CLR 17/14 A3009 RMK AO2 =
2014-07-31 04:55 METAR KLKU 310855Z AUTO 20003KT 10SM CLR 17/14 A3008 RMK AO2 =
2014-07-31 04:35 METAR KLKU 310835Z AUTO 00000KT 10SM CLR 17/15 A3008 RMK AO2 =
2014-07-31 04:15 METAR KLKU 310815Z AUTO 20004KT 10SM CLR 17/15 A3007 RMK AO2 =
2014-07-31 03:35 METAR KLKU 310735Z AUTO 00000KT 10SM CLR 17/14 A3007 RMK AO2 =
2014-07-31 03:15 METAR KLKU 310715Z AUTO 00000KT 10SM CLR 17/15 A3007 RMK AO2 =
2014-07-31 02:55 METAR KLKU 310655Z AUTO 00000KT 7SM CLR 15/14 A3007 RMK AO2 =
2014-07-31 02:35 METAR KLKU 310635Z AUTO 23003KT 7SM CLR 14/13 A3008 RMK AO2 =
2014-07-31 02:15 METAR KLKU 310615Z AUTO 00000KT 4SM BR CLR 14/13 A3008 RMK AO2 =
2014-07-31 01:55 METAR KLKU 310555Z AUTO 00000KT 10SM CLR 15/13 A3008 RMK AO2 =
2014-07-31 01:35 METAR KLKU 310535Z AUTO 00000KT 10SM CLR 16/14 A3008 RMK AO2 =
2014-07-31 01:15 METAR KLKU 310515Z AUTO 00000KT 10SM CLR 16/14 A3008 RMK AO2 =
2014-07-31 00:55 METAR KLKU 310455Z AUTO 00000KT 10SM CLR 15/14 A3007 RMK AO2 =
2014-07-31 00:35 METAR KLKU 310435Z AUTO 00000KT 10SM CLR 15/14 A3007 RMK AO2 =
2014-07-31 00:15 METAR KLKU 310415Z AUTO 00000KT 10SM CLR 16/14 A3007 RMK AO2 =
2014-07-30 23:55 METAR KLKU 310355Z AUTO 00000KT 10SM CLR 17/14 A3007 RMK AO2 =
2014-07-30 23:35 METAR KLKU 310335Z AUTO 00000KT 10SM CLR 17/14 A3007 RMK AO2 =
2014-07-30 23:15 METAR KLKU 310315Z AUTO 00000KT 10SM CLR 18/15 A3007 RMK AO2 =
2014-07-30 22:35 METAR KLKU 310235Z AUTO 00000KT 10SM CLR 16/14 A3006 RMK AO2 =
2014-07-30 22:15 METAR KLKU 310215Z AUTO 16003KT 10SM CLR 16/14 A3007 RMK AO2 =
2014-07-30 21:55 METAR KLKU 310155Z AUTO 16003KT 10SM CLR 16/14 A3007 RMK AO2 =
2014-07-30 21:35 METAR KLKU 310135Z AUTO 16003KT 10SM CLR 16/15 A3007 RMK AO2 =
2014-07-30 21:15 METAR KLKU 310115Z AUTO 00000KT 10SM CLR 16/15 A3007 RMK AO2 =
2014-07-30 20:55 METAR KLKU 310055Z AUTO 00000KT 10SM CLR 17/16 A3007 RMK AO2 =
2014-07-30 20:35 METAR KLKU 310035Z AUTO 00000KT 10SM CLR 18/16 A3006 RMK AO2 =
2014-07-30 20:15 METAR KLKU 310015Z AUTO 00000KT 10SM CLR 19/17 A3006 RMK AO2 =
2014-07-30 19:15 METAR KLKU 302315Z AUTO 16003KT 10SM CLR 24/16 A3004 RMK AO2 =
2014-07-30 18:55 METAR KLKU 302255Z AUTO 16003KT 10SM CLR 24/16 A3004 RMK AO2 =
2014-07-30 18:35 METAR KLKU 302235Z AUTO 18003KT 10SM CLR 25/14 A3004 RMK AO2 =
2014-07-30 18:15 METAR KLKU 302215Z AUTO 18004KT 10SM CLR 25/14 A3003 RMK AO2 =
2014-07-30 17:55 METAR KLKU 302155Z AUTO 21003KT 10SM CLR 26/14 A3003 RMK AO2 =

Support USWX by starting your Amazon purchase here.